createdAt,value
2022-12-14T00:00:30.013Z,44.40
2022-12-14T00:01:29.960Z,41.70
2022-12-14T00:02:30.077Z,42.70
2022-12-14T00:03:29.979Z,45.30
2022-12-14T00:04:29.908Z,43.80
2022-12-14T00:05:29.891Z,41.30
2022-12-14T00:06:29.880Z,40.70
2022-12-14T00:07:29.860Z,42.10
2022-12-14T00:08:30.121Z,41.50
2022-12-14T00:09:29.824Z,39.70
2022-12-14T00:10:29.812Z,41.70
2022-12-14T00:11:29.791Z,38.00
2022-12-14T00:12:29.777Z,39.00
2022-12-14T00:13:29.761Z,40.00
2022-12-14T00:14:29.742Z,39.30
2022-12-14T00:15:29.775Z,39.40
2022-12-14T00:16:29.706Z,42.50
2022-12-14T00:17:29.696Z,41.90
2022-12-14T00:18:30.025Z,40.20
2022-12-14T00:19:29.657Z,39.40
2022-12-14T00:20:29.643Z,39.70
2022-12-14T00:21:29.632Z,38.00
2022-12-14T00:22:29.616Z,36.80
2022-12-14T00:23:32.077Z,39.00
2022-12-14T00:24:29.576Z,39.30
2022-12-14T00:25:29.556Z,38.10
2022-12-14T00:26:29.544Z,38.90
2022-12-14T00:27:29.527Z,40.80
2022-12-14T00:28:29.834Z,36.40
2022-12-14T00:29:29.667Z,36.40
2022-12-14T00:30:29.477Z,38.00
2022-12-14T00:31:29.535Z,37.50
2022-12-14T00:32:29.440Z,37.80
2022-12-14T00:33:29.423Z,38.70
2022-12-14T00:34:29.407Z,37.40
2022-12-14T00:35:29.397Z,38.50
2022-12-14T00:36:29.376Z,38.60
2022-12-14T00:37:29.361Z,35.90
2022-12-14T00:38:29.632Z,35.80
2022-12-14T00:39:29.325Z,38.70
2022-12-14T00:40:29.309Z,38.20
2022-12-14T00:41:29.305Z,35.60
2022-12-14T00:42:29.276Z,35.20
2022-12-14T00:43:29.259Z,37.80
2022-12-14T00:44:29.239Z,36.50
2022-12-14T00:45:29.222Z,38.10
2022-12-14T00:46:29.274Z,37.80
2022-12-14T00:47:29.192Z,38.80
2022-12-14T00:48:29.580Z,36.00
2022-12-14T00:49:29.161Z,35.40
2022-12-14T00:50:29.148Z,38.10
2022-12-14T00:51:29.142Z,36.50
2022-12-14T00:52:29.130Z,36.30
2022-12-14T00:53:29.092Z,34.70
2022-12-14T00:54:29.074Z,37.00
2022-12-14T00:55:29.063Z,34.30
2022-12-14T00:56:29.041Z,35.80
2022-12-14T00:57:29.024Z,38.00
2022-12-14T00:58:29.621Z,36.00
2022-12-14T00:59:28.992Z,38.60
2022-12-14T01:00:28.968Z,39.20
2022-12-14T01:01:29.044Z,38.10
2022-12-14T01:02:29.072Z,37.00
2022-12-14T01:03:29.566Z,36.00
2022-12-14T01:04:28.903Z,40.20
2022-12-14T01:05:28.890Z,41.30
2022-12-14T01:06:28.873Z,38.60
2022-12-14T01:07:28.857Z,41.50
2022-12-14T01:08:28.836Z,38.20
2022-12-14T01:09:28.829Z,39.90
2022-12-14T01:10:28.850Z,40.50
2022-12-14T01:11:28.784Z,39.80
2022-12-14T01:12:28.778Z,40.00
2022-12-14T01:13:29.232Z,39.90
2022-12-14T01:14:28.740Z,39.80
2022-12-14T01:15:28.779Z,41.40
2022-12-14T01:16:28.790Z,38.80
2022-12-14T01:17:28.688Z,39.70
2022-12-14T01:18:28.670Z,39.00
2022-12-14T01:19:28.654Z,38.70
2022-12-14T01:20:28.637Z,40.70
2022-12-14T01:21:28.620Z,42.90
2022-12-14T01:22:28.605Z,41.80
2022-12-14T01:23:29.124Z,39.80
2022-12-14T01:24:28.577Z,41.00
2022-12-14T01:25:28.553Z,42.20
2022-12-14T01:26:28.546Z,39.50
2022-12-14T01:27:28.523Z,42.90
2022-12-14T01:28:28.501Z,43.60
2022-12-14T01:29:28.486Z,40.40
2022-12-14T01:30:28.469Z,42.40
2022-12-14T01:31:28.530Z,44.90
2022-12-14T01:32:28.437Z,42.10
2022-12-14T01:33:28.860Z,43.60
2022-12-14T01:34:28.404Z,44.60
2022-12-14T01:35:28.387Z,41.00
2022-12-14T01:36:28.367Z,40.80
2022-12-14T01:37:28.352Z,40.00
2022-12-14T01:38:28.337Z,41.90
2022-12-14T01:39:28.321Z,41.60
2022-12-14T01:40:28.300Z,43.20
2022-12-14T01:41:28.285Z,44.60
2022-12-14T01:42:28.271Z,42.50
2022-12-14T01:43:28.828Z,42.30
2022-12-14T01:44:28.233Z,41.70
2022-12-14T01:45:28.218Z,42.00
2022-12-14T01:46:28.248Z,40.70
2022-12-14T01:47:28.185Z,40.70
2022-12-14T01:48:28.169Z,43.60
2022-12-14T01:49:28.150Z,41.60
2022-12-14T01:50:28.135Z,46.00
2022-12-14T01:51:28.119Z,41.00
2022-12-14T01:52:28.099Z,44.60
2022-12-14T01:53:28.639Z,45.80
2022-12-14T01:54:28.066Z,42.30
2022-12-14T01:55:28.050Z,41.80
2022-12-14T01:56:28.034Z,44.90
2022-12-14T01:57:28.023Z,44.90
2022-12-14T01:58:27.999Z,46.00
2022-12-14T01:59:27.980Z,42.20
2022-12-14T02:00:27.976Z,41.90
2022-12-14T02:01:28.073Z,44.10
2022-12-14T02:02:28.086Z,44.80
2022-12-14T02:03:28.447Z,45.80
2022-12-14T02:04:27.898Z,44.30
2022-12-14T02:05:27.883Z,42.40
2022-12-14T02:06:27.869Z,42.30
2022-12-14T02:07:27.882Z,45.90
2022-12-14T02:08:27.830Z,44.60
2022-12-14T02:09:27.815Z,44.30
2022-12-14T02:10:27.800Z,47.30
2022-12-14T02:11:27.784Z,45.80
2022-12-14T02:12:27.765Z,43.90
2022-12-14T02:13:28.146Z,44.10
2022-12-14T02:14:27.734Z,44.00
2022-12-14T02:15:27.717Z,42.90
2022-12-14T02:16:27.743Z,40.60
2022-12-14T02:17:27.697Z,43.90
2022-12-14T02:18:27.667Z,44.90
2022-12-14T02:19:27.649Z,47.20
2022-12-14T02:20:27.631Z,46.50
2022-12-14T02:21:27.612Z,44.00
2022-12-14T02:22:27.603Z,45.30
2022-12-14T02:23:27.839Z,44.90
2022-12-14T02:24:27.559Z,47.10
2022-12-14T02:25:27.548Z,44.70
2022-12-14T02:26:27.530Z,48.80
2022-12-14T02:27:27.548Z,46.20
2022-12-14T02:28:27.501Z,47.00
2022-12-14T02:29:27.482Z,46.90
2022-12-14T02:30:27.463Z,45.90
2022-12-14T02:31:27.464Z,50.00
2022-12-14T02:32:27.451Z,49.80
2022-12-14T02:33:27.800Z,48.90
2022-12-14T02:34:27.394Z,47.60
2022-12-14T02:35:27.379Z,46.10
2022-12-14T02:36:27.363Z,47.10
2022-12-14T02:37:27.342Z,47.00
2022-12-14T02:38:27.336Z,48.80
2022-12-14T02:39:27.316Z,49.00
2022-12-14T02:40:27.296Z,49.50
2022-12-14T02:41:27.278Z,49.40
2022-12-14T02:42:27.268Z,51.40
2022-12-14T02:43:27.727Z,50.80
2022-12-14T02:44:27.230Z,48.40
2022-12-14T02:45:27.253Z,49.10
2022-12-14T02:46:27.260Z,50.90
2022-12-14T02:47:27.179Z,51.60
2022-12-14T02:48:27.156Z,51.80
2022-12-14T02:49:27.144Z,52.20
2022-12-14T02:50:27.129Z,49.20
2022-12-14T02:51:27.110Z,49.80
2022-12-14T02:52:27.091Z,51.60
2022-12-14T02:53:27.435Z,51.40
2022-12-14T02:54:27.068Z,51.10
2022-12-14T02:55:27.046Z,52.60
2022-12-14T02:56:27.024Z,52.50
2022-12-14T02:57:27.009Z,49.80
2022-12-14T02:58:27.007Z,50.80
2022-12-14T02:59:26.973Z,49.50
2022-12-14T03:00:26.989Z,49.50
2022-12-14T03:01:27.076Z,50.50
2022-12-14T03:02:26.995Z,49.80
2022-12-14T03:03:27.323Z,50.00
2022-12-14T03:04:26.890Z,50.70
2022-12-14T03:05:26.874Z,51.10
2022-12-14T03:06:26.858Z,53.30
2022-12-14T03:07:26.839Z,54.70
2022-12-14T03:08:26.821Z,51.20
2022-12-14T03:09:26.808Z,53.80
2022-12-14T03:10:26.788Z,51.50
2022-12-14T03:11:26.776Z,53.20
2022-12-14T03:12:26.757Z,50.60
2022-12-14T03:13:27.097Z,51.80
2022-12-14T03:14:26.726Z,51.50
2022-12-14T03:15:26.728Z,51.80
2022-12-14T03:16:26.735Z,53.10
2022-12-14T03:17:26.674Z,51.30
2022-12-14T03:18:26.656Z,53.00
2022-12-14T03:19:26.643Z,55.80
2022-12-14T03:20:26.625Z,51.80
2022-12-14T03:21:26.605Z,54.60
2022-12-14T03:22:26.641Z,50.50
2022-12-14T03:23:26.979Z,50.40
2022-12-14T03:24:26.557Z,51.10
2022-12-14T03:25:26.537Z,52.10
2022-12-14T03:26:26.522Z,54.50
2022-12-14T03:27:26.508Z,54.60
2022-12-14T03:28:26.493Z,53.20
2022-12-14T03:29:26.469Z,56.40
2022-12-14T03:30:58.392Z,52.10
2022-12-14T03:31:26.511Z,53.00
2022-12-14T03:32:26.418Z,53.10
2022-12-14T03:33:26.756Z,54.40
2022-12-14T03:34:26.390Z,48.70
2022-12-14T03:35:26.372Z,53.30
2022-12-14T03:36:26.353Z,52.10
2022-12-14T03:37:26.334Z,52.90
2022-12-14T03:38:26.316Z,50.60
2022-12-14T03:39:26.301Z,52.60
2022-12-14T03:40:26.283Z,50.50
2022-12-14T03:41:26.267Z,52.80
2022-12-14T03:42:26.249Z,50.40
2022-12-14T03:43:26.619Z,54.30
2022-12-14T03:44:26.217Z,53.40
2022-12-14T03:45:26.240Z,49.30
2022-12-14T03:46:26.183Z,49.40
2022-12-14T03:47:26.167Z,52.60
2022-12-14T03:48:26.147Z,52.00
2022-12-14T03:49:26.129Z,54.00
2022-12-14T03:50:26.116Z,49.20
2022-12-14T03:51:26.098Z,52.30
2022-12-14T03:52:26.081Z,52.60
2022-12-14T03:53:26.472Z,53.60
2022-12-14T03:54:26.049Z,52.00
2022-12-14T03:55:26.031Z,49.10
2022-12-14T03:56:26.014Z,51.50
2022-12-14T03:57:25.997Z,49.80
2022-12-14T03:58:25.994Z,53.30
2022-12-14T03:59:25.960Z,52.80
2022-12-14T04:00:25.951Z,52.50
2022-12-14T04:01:26.211Z,51.50
2022-12-14T04:02:26.019Z,51.60
2022-12-14T04:03:26.206Z,52.20
2022-12-14T04:04:25.877Z,51.30
2022-12-14T04:05:25.857Z,52.70
2022-12-14T04:06:26.577Z,54.30
2022-12-14T04:07:25.830Z,53.80
2022-12-14T04:08:25.811Z,51.50
2022-12-14T04:09:25.792Z,51.80
2022-12-14T04:10:25.776Z,50.80
2022-12-14T04:11:25.759Z,53.10
2022-12-14T04:12:25.744Z,52.50
2022-12-14T04:13:26.182Z,54.20
2022-12-14T04:14:25.707Z,53.80
2022-12-14T04:15:25.689Z,53.70
2022-12-14T04:16:25.715Z,51.80
2022-12-14T04:17:25.654Z,50.40
2022-12-14T04:18:25.640Z,54.60
2022-12-14T04:19:25.621Z,52.60
2022-12-14T04:20:25.608Z,54.00
2022-12-14T04:21:25.616Z,52.60
2022-12-14T04:22:25.573Z,52.40
2022-12-14T04:23:25.917Z,55.40
2022-12-14T04:24:25.533Z,54.40
2022-12-14T04:25:25.524Z,57.30
2022-12-14T04:26:25.522Z,55.70
2022-12-14T04:27:25.487Z,57.50
2022-12-14T04:28:25.468Z,58.30
2022-12-14T04:29:25.451Z,55.70
2022-12-14T04:30:25.435Z,55.30
2022-12-14T04:31:25.479Z,54.00
2022-12-14T04:32:25.423Z,55.80
2022-12-14T04:33:25.736Z,53.60
2022-12-14T04:34:25.369Z,51.80
2022-12-14T04:35:25.351Z,53.80
2022-12-14T04:36:25.335Z,52.50
2022-12-14T04:37:25.324Z,51.30
2022-12-14T04:38:25.300Z,52.50
2022-12-14T04:39:25.284Z,53.20
2022-12-14T04:40:25.262Z,56.00
2022-12-14T04:41:25.248Z,52.50
2022-12-14T04:42:25.233Z,52.80
2022-12-14T04:43:25.493Z,53.60
2022-12-14T04:44:25.217Z,51.70
2022-12-14T04:45:25.179Z,52.20
2022-12-14T04:46:25.167Z,52.80
2022-12-14T04:47:25.147Z,52.30
2022-12-14T04:48:25.131Z,57.30
2022-12-14T04:49:25.112Z,58.20
2022-12-14T04:50:25.092Z,53.50
2022-12-14T04:51:25.078Z,56.80
2022-12-14T04:52:25.062Z,56.40
2022-12-14T04:53:25.504Z,55.50
2022-12-14T04:54:25.027Z,55.60
2022-12-14T04:55:25.005Z,56.40
2022-12-14T04:56:24.987Z,57.20
2022-12-14T04:57:25.203Z,57.80
2022-12-14T04:58:24.956Z,55.80
2022-12-14T04:59:24.942Z,55.60
2022-12-14T05:00:24.923Z,57.30
2022-12-14T05:01:24.992Z,57.50
2022-12-14T05:02:24.962Z,56.00
2022-12-14T05:03:25.183Z,55.90
2022-12-14T05:04:24.857Z,54.40
2022-12-14T05:05:24.842Z,57.70
2022-12-14T05:06:24.821Z,59.60
2022-12-14T05:07:24.808Z,60.40
2022-12-14T05:08:24.786Z,55.60
2022-12-14T05:09:24.771Z,57.80
2022-12-14T05:10:24.748Z,55.70
2022-12-14T05:11:53.255Z,59.90
2022-12-14T05:12:24.715Z,57.80
2022-12-14T05:13:24.922Z,55.80
2022-12-14T05:14:24.682Z,55.20
2022-12-14T05:15:24.668Z,55.00
2022-12-14T05:16:24.709Z,56.20
2022-12-14T05:17:24.635Z,56.20
2022-12-14T05:18:24.613Z,55.80
2022-12-14T05:19:24.600Z,53.60
2022-12-14T05:20:24.585Z,54.30
2022-12-14T05:21:24.588Z,54.00
2022-12-14T05:22:24.548Z,57.30
2022-12-14T05:23:24.915Z,53.00
2022-12-14T05:24:24.513Z,55.60
2022-12-14T05:25:24.498Z,55.90
2022-12-14T05:26:24.478Z,57.10
2022-12-14T05:27:24.457Z,53.40
2022-12-14T05:28:24.443Z,52.40
2022-12-14T05:29:24.429Z,55.10
2022-12-14T05:30:24.474Z,54.40
2022-12-14T05:31:24.394Z,54.00
2022-12-14T05:32:24.378Z,53.80
2022-12-14T05:33:24.479Z,57.50
2022-12-14T05:34:24.356Z,53.00
2022-12-14T05:35:24.326Z,55.70
2022-12-14T05:36:24.306Z,54.60
2022-12-14T05:37:24.290Z,53.70
2022-12-14T05:38:24.273Z,54.60
2022-12-14T05:39:24.263Z,55.20
2022-12-14T05:40:24.237Z,55.10
2022-12-14T05:41:24.221Z,53.30
2022-12-14T05:42:24.210Z,53.40
2022-12-14T05:43:24.329Z,52.20
2022-12-14T05:44:24.170Z,52.10
2022-12-14T05:45:24.152Z,53.10
2022-12-14T05:46:24.198Z,54.90
2022-12-14T05:47:24.119Z,52.60
2022-12-14T05:48:24.099Z,52.60
2022-12-14T05:49:24.086Z,51.20
2022-12-14T05:50:24.069Z,52.90
2022-12-14T05:51:24.048Z,54.90
2022-12-14T05:52:24.033Z,53.20
2022-12-14T05:53:24.191Z,53.40
2022-12-14T05:54:23.999Z,54.70
2022-12-14T05:55:23.981Z,52.30
2022-12-14T05:56:23.963Z,52.60
2022-12-14T05:57:23.949Z,55.60
2022-12-14T05:58:23.927Z,54.70
2022-12-14T05:59:23.913Z,56.80
2022-12-14T06:00:23.893Z,52.80
2022-12-14T06:01:23.942Z,54.90
2022-12-14T06:02:23.946Z,50.10
2022-12-14T06:03:23.851Z,51.90
2022-12-14T06:04:23.884Z,52.60
2022-12-14T06:05:23.821Z,50.50
2022-12-14T06:06:23.793Z,53.20
2022-12-14T06:07:27.831Z,53.40
2022-12-14T06:08:23.783Z,50.80
2022-12-14T06:09:23.753Z,50.60
2022-12-14T06:10:23.723Z,54.50
2022-12-14T06:11:23.707Z,55.30
2022-12-14T06:12:23.688Z,55.80
2022-12-14T06:13:23.683Z,54.30
2022-12-14T06:14:23.660Z,53.60
2022-12-14T06:15:23.639Z,55.60
2022-12-14T06:16:23.693Z,53.50
2022-12-14T06:17:23.601Z,55.90
2022-12-14T06:18:23.588Z,51.20
2022-12-14T06:19:23.573Z,53.00
2022-12-14T06:20:23.554Z,51.30
2022-12-14T06:21:23.543Z,52.50
2022-12-14T06:22:23.520Z,52.50
2022-12-14T06:23:23.509Z,50.70
2022-12-14T06:24:23.497Z,49.90
2022-12-14T06:25:23.468Z,56.70
2022-12-14T06:26:23.444Z,52.60
2022-12-14T06:27:23.427Z,53.10
2022-12-14T06:28:23.415Z,54.90
2022-12-14T06:29:23.401Z,53.80
2022-12-14T06:30:23.376Z,52.50
2022-12-14T06:31:23.389Z,52.60
2022-12-14T06:32:23.368Z,51.40
2022-12-14T06:33:23.344Z,51.90
2022-12-14T06:34:28.153Z,51.20
2022-12-14T06:35:23.296Z,54.00
2022-12-14T06:36:23.273Z,51.50
2022-12-14T06:37:23.258Z,50.00
2022-12-14T06:38:23.260Z,50.30
2022-12-14T06:39:23.225Z,54.60
2022-12-14T06:40:23.201Z,53.70
2022-12-14T06:41:23.192Z,55.50
2022-12-14T06:42:23.174Z,56.20
2022-12-14T06:43:23.154Z,52.30
2022-12-14T06:44:23.133Z,57.50
2022-12-14T06:45:23.120Z,55.60
2022-12-14T06:46:23.154Z,54.40
2022-12-14T06:47:23.085Z,54.40
2022-12-14T06:48:23.068Z,51.50
2022-12-14T06:49:23.043Z,55.10
2022-12-14T06:50:23.042Z,54.00
2022-12-14T06:51:23.021Z,50.70
2022-12-14T06:52:26.702Z,52.60
2022-12-14T06:53:22.978Z,52.60
2022-12-14T06:54:22.962Z,52.70
2022-12-14T06:55:22.953Z,49.00
2022-12-14T06:56:22.929Z,51.20
2022-12-14T06:57:22.911Z,51.40
2022-12-14T06:58:24.858Z,53.30
2022-12-14T06:59:22.892Z,51.10
2022-12-14T07:00:22.862Z,54.80
2022-12-14T07:01:22.950Z,54.80
2022-12-14T07:02:23.020Z,53.90
2022-12-14T07:03:22.837Z,56.10
2022-12-14T07:04:22.793Z,53.50
2022-12-14T07:05:22.772Z,51.40
2022-12-14T07:06:22.759Z,50.40
2022-12-14T07:07:22.736Z,54.50
2022-12-14T07:08:22.721Z,53.60
2022-12-14T07:09:22.703Z,52.70
2022-12-14T07:10:22.686Z,54.60
2022-12-14T07:11:22.668Z,53.40
2022-12-14T07:12:22.675Z,51.40
2022-12-14T07:13:22.629Z,53.00
2022-12-14T07:14:22.619Z,52.60
2022-12-14T07:15:22.599Z,52.10
2022-12-14T07:16:22.655Z,54.80
2022-12-14T07:17:22.573Z,53.00
2022-12-14T07:18:22.548Z,52.50
2022-12-14T07:19:22.540Z,52.40
2022-12-14T07:20:22.515Z,52.00
2022-12-14T07:21:22.496Z,54.60
2022-12-14T07:22:22.482Z,53.90
2022-12-14T07:23:27.717Z,55.80
2022-12-14T07:24:22.447Z,53.60
2022-12-14T07:25:22.436Z,51.90
2022-12-14T07:26:22.411Z,49.70
2022-12-14T07:27:22.395Z,49.90
2022-12-14T07:28:22.375Z,52.70
2022-12-14T07:29:22.356Z,51.10
2022-12-14T07:30:22.344Z,50.40
2022-12-14T07:31:22.365Z,52.10
2022-12-14T07:32:22.306Z,53.80
2022-12-14T07:33:22.286Z,52.00
2022-12-14T07:34:22.274Z,50.60
2022-12-14T07:35:22.259Z,52.00
2022-12-14T07:36:22.233Z,52.40
2022-12-14T07:37:22.230Z,52.00
2022-12-14T07:38:22.202Z,52.50
2022-12-14T07:39:22.187Z,53.60
2022-12-14T07:40:22.169Z,53.80
2022-12-14T07:41:23.246Z,50.50
2022-12-14T07:42:22.133Z,53.50
2022-12-14T07:43:22.155Z,51.10
2022-12-14T07:44:22.096Z,53.20
2022-12-14T07:45:22.077Z,50.80
2022-12-14T07:46:22.138Z,50.50
2022-12-14T07:47:22.045Z,52.30
2022-12-14T07:48:22.030Z,51.00
2022-12-14T07:49:22.025Z,52.20
2022-12-14T07:50:21.999Z,52.30
2022-12-14T07:51:21.982Z,52.40
2022-12-14T07:52:21.955Z,51.80
2022-12-14T07:53:21.941Z,55.30
2022-12-14T07:54:21.922Z,56.20
2022-12-14T07:55:21.908Z,53.20
2022-12-14T07:56:21.889Z,51.10
2022-12-14T07:57:21.869Z,51.10
2022-12-14T07:58:21.853Z,49.60
2022-12-14T07:59:21.847Z,53.70
2022-12-14T08:00:21.820Z,49.00
2022-12-14T08:01:21.841Z,53.00
2022-12-14T08:02:21.854Z,53.40
2022-12-14T08:03:21.769Z,51.90
2022-12-14T08:04:21.792Z,49.10
2022-12-14T08:05:21.732Z,53.60
2022-12-14T08:06:21.714Z,51.90
2022-12-14T08:07:21.700Z,50.80
2022-12-14T08:08:21.680Z,49.40
2022-12-14T08:09:21.668Z,50.00
2022-12-14T08:10:21.646Z,47.10
2022-12-14T08:11:21.629Z,48.20
2022-12-14T08:12:21.609Z,48.00
2022-12-14T08:13:21.593Z,46.40
2022-12-14T08:14:21.583Z,55.70
2022-12-14T08:15:21.561Z,48.50
2022-12-14T08:16:21.589Z,47.30
2022-12-14T08:17:21.522Z,48.60
2022-12-14T08:18:21.510Z,48.70
2022-12-14T08:19:21.494Z,47.40
2022-12-14T08:20:21.475Z,45.20
2022-12-14T08:21:21.455Z,49.50
2022-12-14T08:22:21.444Z,45.20
2022-12-14T08:23:21.423Z,48.70
2022-12-14T08:24:21.401Z,55.30
2022-12-14T08:25:21.384Z,55.70
2022-12-14T08:26:21.366Z,53.80
2022-12-14T08:27:21.352Z,50.40
2022-12-14T08:28:21.331Z,46.60
2022-12-14T08:29:21.328Z,50.10
2022-12-14T08:30:21.295Z,47.20
2022-12-14T08:31:21.323Z,46.10
2022-12-14T08:32:21.261Z,47.10
2022-12-14T08:33:21.299Z,46.90
2022-12-14T08:34:21.226Z,47.30
2022-12-14T08:35:21.213Z,48.70
2022-12-14T08:36:21.218Z,48.80
2022-12-14T08:37:21.173Z,48.20
2022-12-14T08:38:21.159Z,47.70
2022-12-14T08:39:21.146Z,49.50
2022-12-14T08:40:21.127Z,48.00
2022-12-14T08:41:21.104Z,44.90
2022-12-14T08:42:21.094Z,49.70
2022-12-14T08:43:24.974Z,48.00
2022-12-14T08:44:21.057Z,48.60
2022-12-14T08:45:21.041Z,47.20
2022-12-14T08:46:21.045Z,46.70
2022-12-14T08:47:21.005Z,46.00
2022-12-14T08:48:20.997Z,45.20
2022-12-14T08:49:20.961Z,45.00
2022-12-14T08:50:20.950Z,46.20
2022-12-14T08:51:20.933Z,45.70
2022-12-14T08:52:20.911Z,42.00
2022-12-14T08:53:20.897Z,39.80
2022-12-14T08:54:20.880Z,43.50
2022-12-14T08:55:25.728Z,40.20
2022-12-14T08:56:20.846Z,42.00
2022-12-14T08:57:20.829Z,38.80
2022-12-14T08:58:20.813Z,40.10
2022-12-14T08:59:51.965Z,40.80
2022-12-14T09:00:20.777Z,37.40
2022-12-14T09:01:20.891Z,39.50
2022-12-14T09:02:20.898Z,38.20
2022-12-14T09:03:20.774Z,36.30
2022-12-14T09:04:20.706Z,35.30
2022-12-14T09:05:20.695Z,34.20
2022-12-14T09:06:20.680Z,39.00
2022-12-14T09:07:20.669Z,36.90
2022-12-14T09:08:20.638Z,35.00
2022-12-14T09:09:20.622Z,37.80
2022-12-14T09:10:20.614Z,35.20
2022-12-14T09:11:20.590Z,36.60
2022-12-14T09:12:20.600Z,36.90
2022-12-14T09:13:20.570Z,36.00
2022-12-14T09:14:20.538Z,33.40
2022-12-14T09:15:20.522Z,33.60
2022-12-14T09:16:20.607Z,34.80
2022-12-14T09:17:20.487Z,34.60
2022-12-14T09:18:20.471Z,34.50
2022-12-14T09:19:20.454Z,35.80
2022-12-14T09:20:20.453Z,34.70
2022-12-14T09:21:20.417Z,35.10
2022-12-14T09:22:21.558Z,36.40
2022-12-14T09:23:20.386Z,36.20
2022-12-14T09:24:20.369Z,35.20
2022-12-14T09:25:20.352Z,35.40
2022-12-14T09:26:20.338Z,36.40
2022-12-14T09:27:20.384Z,35.10
2022-12-14T09:28:20.300Z,34.10
2022-12-14T09:29:20.285Z,37.80
2022-12-14T09:30:26.200Z,32.60
2022-12-14T09:31:20.281Z,33.50
2022-12-14T09:32:20.394Z,35.30
2022-12-14T09:33:20.214Z,34.20
2022-12-14T09:34:20.201Z,34.00
2022-12-14T09:35:20.188Z,33.90
2022-12-14T09:36:20.167Z,34.70
2022-12-14T09:37:20.293Z,38.30
2022-12-14T09:38:20.134Z,34.20
2022-12-14T09:39:20.118Z,32.40
2022-12-14T09:40:20.171Z,34.10
2022-12-14T09:41:20.085Z,35.40
2022-12-14T09:42:20.116Z,36.30
2022-12-14T09:43:20.118Z,31.80
2022-12-14T09:44:20.032Z,33.50
2022-12-14T09:45:20.017Z,33.10
2022-12-14T09:46:20.056Z,32.80
2022-12-14T09:47:19.981Z,33.00
2022-12-14T09:48:19.966Z,34.30
2022-12-14T09:49:19.950Z,35.50
2022-12-14T09:50:20.051Z,34.30
2022-12-14T09:51:19.968Z,34.20
2022-12-14T09:52:19.898Z,35.60
2022-12-14T09:53:19.881Z,35.70
2022-12-14T09:54:19.869Z,35.50
2022-12-14T09:55:19.852Z,32.90
2022-12-14T09:56:19.841Z,31.80
2022-12-14T09:57:19.816Z,33.30
2022-12-14T09:58:19.801Z,32.60
2022-12-14T09:59:19.782Z,31.60
2022-12-14T10:00:19.884Z,31.40
2022-12-14T10:01:19.826Z,32.10
2022-12-14T10:02:30.950Z,31.90
2022-12-14T10:03:19.865Z,30.00
2022-12-14T10:04:19.756Z,32.20
2022-12-14T10:05:19.685Z,31.50
2022-12-14T10:06:19.667Z,32.60
2022-12-14T10:07:19.651Z,31.40
2022-12-14T10:08:19.630Z,31.10
2022-12-14T10:09:19.623Z,34.60
2022-12-14T10:10:19.607Z,32.40
2022-12-14T10:11:19.584Z,31.90
2022-12-14T10:12:19.570Z,32.40
2022-12-14T10:13:19.549Z,33.10
2022-12-14T10:14:19.537Z,34.20
2022-12-14T10:15:19.523Z,31.90
2022-12-14T10:16:19.551Z,33.90
2022-12-14T10:17:19.486Z,35.20
2022-12-14T10:18:41.380Z,32.80
2022-12-14T10:19:19.453Z,32.10
2022-12-14T10:20:19.436Z,32.60
2022-12-14T10:21:19.423Z,32.90
2022-12-14T10:22:19.415Z,32.30
2022-12-14T10:23:22.793Z,32.40
2022-12-14T10:24:19.373Z,31.70
2022-12-14T10:25:19.357Z,33.00
2022-12-14T10:26:19.336Z,35.30
2022-12-14T10:27:19.322Z,30.70
2022-12-14T10:28:19.303Z,32.70
2022-12-14T10:29:19.315Z,32.50
2022-12-14T10:30:19.276Z,32.80
2022-12-14T10:31:19.289Z,30.80
2022-12-14T10:32:19.240Z,32.60
2022-12-14T10:33:19.221Z,34.30
2022-12-14T10:34:19.210Z,31.70
2022-12-14T10:35:19.197Z,33.30
2022-12-14T10:36:19.174Z,34.80
2022-12-14T10:37:19.156Z,31.70
2022-12-14T10:38:19.143Z,31.20
2022-12-14T10:39:19.124Z,32.00
2022-12-14T10:40:29.150Z,30.70
2022-12-14T10:41:19.092Z,33.10
2022-12-14T10:42:19.073Z,34.10
2022-12-14T10:43:19.072Z,31.00
2022-12-14T10:44:19.042Z,32.50
2022-12-14T10:45:42.998Z,30.60
2022-12-14T10:46:19.101Z,32.80
2022-12-14T10:47:19.508Z,32.40
2022-12-14T10:48:18.977Z,32.40
2022-12-14T10:49:18.963Z,33.10
2022-12-14T10:50:18.945Z,33.10
2022-12-14T10:51:18.926Z,32.20
2022-12-14T10:52:18.909Z,32.00
2022-12-14T10:53:18.893Z,34.20
2022-12-14T10:54:18.878Z,31.40
2022-12-14T10:55:18.860Z,34.20
2022-12-14T10:56:18.974Z,31.80
2022-12-14T10:57:18.831Z,31.00
2022-12-14T10:58:18.807Z,33.80
2022-12-14T10:59:18.796Z,35.10
2022-12-14T11:00:24.121Z,33.60
2022-12-14T11:01:18.919Z,31.30
2022-12-14T11:02:18.966Z,31.80
2022-12-14T11:03:18.785Z,32.00
2022-12-14T11:04:18.712Z,28.30
2022-12-14T11:05:18.699Z,31.40
2022-12-14T11:06:18.681Z,31.80
2022-12-14T11:07:18.663Z,31.40
2022-12-14T11:08:18.648Z,30.50
2022-12-14T11:09:18.628Z,30.60
2022-12-14T11:10:18.629Z,29.20
2022-12-14T11:11:19.528Z,29.20
2022-12-14T11:12:18.678Z,29.60
2022-12-14T11:13:18.562Z,28.70
2022-12-14T11:14:18.548Z,29.00
2022-12-14T11:15:18.532Z,28.20
2022-12-14T11:16:18.643Z,28.50
2022-12-14T11:17:18.657Z,27.30
2022-12-14T11:18:18.521Z,28.10
2022-12-14T11:19:18.470Z,28.50
2022-12-14T11:20:18.455Z,29.60
2022-12-14T11:21:18.430Z,27.00
2022-12-14T11:22:22.206Z,30.20
2022-12-14T11:23:18.403Z,26.60
2022-12-14T11:24:18.387Z,26.00
2022-12-14T11:25:18.369Z,28.10
2022-12-14T11:26:18.357Z,27.90
2022-12-14T11:27:18.341Z,30.70
2022-12-14T11:28:18.319Z,28.40
2022-12-14T11:29:18.303Z,30.20
2022-12-14T11:30:18.286Z,31.90
2022-12-14T11:31:18.308Z,29.60
2022-12-14T11:32:18.256Z,31.70
2022-12-14T11:33:18.236Z,31.30
2022-12-14T11:34:21.975Z,30.80
2022-12-14T11:35:18.208Z,29.20
2022-12-14T11:36:18.195Z,29.00
2022-12-14T11:37:18.230Z,31.50
2022-12-14T11:38:18.158Z,30.30
2022-12-14T11:39:18.141Z,29.20
2022-12-14T11:40:18.125Z,28.90
2022-12-14T11:41:18.107Z,28.90
2022-12-14T11:42:18.131Z,26.80
2022-12-14T11:43:18.075Z,28.30
2022-12-14T11:44:18.058Z,26.40
2022-12-14T11:45:18.043Z,28.50
2022-12-14T11:46:18.076Z,28.90
2022-12-14T11:47:18.011Z,26.30
2022-12-14T11:48:17.994Z,29.20
2022-12-14T11:49:17.977Z,28.40
2022-12-14T11:50:17.961Z,29.30
2022-12-14T11:51:17.947Z,27.00
2022-12-14T11:52:17.930Z,30.10
2022-12-14T11:53:17.915Z,28.90
2022-12-14T11:54:17.899Z,32.10
2022-12-14T11:55:23.043Z,29.40
2022-12-14T11:56:17.870Z,28.60
2022-12-14T11:57:17.845Z,27.10
2022-12-14T11:58:17.833Z,28.40
2022-12-14T11:59:17.813Z,29.30
2022-12-14T12:00:17.801Z,29.10
2022-12-14T12:01:17.836Z,26.70
2022-12-14T12:02:17.917Z,27.60
2022-12-14T12:03:17.811Z,26.90
2022-12-14T12:04:17.736Z,28.50
2022-12-14T12:05:17.718Z,28.80
2022-12-14T12:06:17.703Z,27.70
2022-12-14T12:07:17.687Z,26.80
2022-12-14T12:08:17.670Z,25.20
2022-12-14T12:09:17.658Z,27.60
2022-12-14T12:10:17.640Z,26.70
2022-12-14T12:11:17.626Z,27.20
2022-12-14T12:12:17.611Z,28.00
2022-12-14T12:13:17.592Z,28.40
2022-12-14T12:14:17.627Z,29.10
2022-12-14T12:15:17.562Z,29.60
2022-12-14T12:16:17.580Z,25.70
2022-12-14T12:17:17.533Z,26.30
2022-12-14T12:18:17.510Z,26.80
2022-12-14T12:19:17.496Z,28.00
2022-12-14T12:20:17.481Z,29.10
2022-12-14T12:21:17.466Z,28.40
2022-12-14T12:22:17.449Z,27.70
2022-12-14T12:23:17.434Z,27.40
2022-12-14T12:24:17.418Z,26.60
2022-12-14T12:25:26.782Z,28.00
2022-12-14T12:26:17.385Z,29.10
2022-12-14T12:27:17.368Z,28.80
2022-12-14T12:28:17.351Z,28.50
2022-12-14T12:29:17.338Z,28.50
2022-12-14T12:30:17.322Z,29.80
2022-12-14T12:31:17.353Z,27.50
2022-12-14T12:32:17.290Z,28.80
2022-12-14T12:33:17.273Z,28.70
2022-12-14T12:34:17.265Z,29.80
2022-12-14T12:35:17.246Z,29.40
2022-12-14T12:36:23.368Z,29.40
2022-12-14T12:37:26.241Z,28.10
2022-12-14T12:38:17.193Z,31.30
2022-12-14T12:39:17.179Z,28.90
2022-12-14T12:40:17.163Z,31.80
2022-12-14T12:41:17.163Z,31.30
2022-12-14T12:42:17.129Z,32.00
2022-12-14T12:43:17.112Z,28.30
2022-12-14T12:44:17.098Z,32.70
2022-12-14T12:45:17.088Z,27.80
2022-12-14T12:46:17.122Z,30.10
2022-12-14T12:47:29.030Z,31.70
2022-12-14T12:48:17.035Z,31.10
2022-12-14T12:49:17.019Z,28.10
2022-12-14T12:50:17.000Z,27.20
2022-12-14T12:51:16.987Z,30.90
2022-12-14T12:52:16.971Z,28.00